sensor_id;sensor_type;location;lat;lon;timestamp;temperature;humidity
20856;DHT22;63058;49.424;8.420;2023-10-08T00:01:19;19.80;72.10
20856;DHT22;63058;49.424;8.420;2023-10-08T00:03:46;19.80;72.10
20856;DHT22;63058;49.424;8.420;2023-10-08T00:06:15;19.80;72.20
20856;DHT22;63058;49.424;8.420;2023-10-08T00:08:41;19.80;72.10
20856;DHT22;63058;49.424;8.420;2023-10-08T00:11:07;19.70;72.00
20856;DHT22;63058;49.424;8.420;2023-10-08T00:13:38;19.80;72.20
20856;DHT22;63058;49.424;8.420;2023-10-08T00:16:14;19.80;72.20
20856;DHT22;63058;49.424;8.420;2023-10-08T00:18:44;19.60;72.20
20856;DHT22;63058;49.424;8.420;2023-10-08T00:21:17;19.70;72.20
20856;DHT22;63058;49.424;8.420;2023-10-08T00:23:45;19.70;72.20
20856;DHT22;63058;49.424;8.420;2023-10-08T00:26:23;19.60;72.20
20856;DHT22;63058;49.424;8.420;2023-10-08T00:29:00;19.60;72.20
20856;DHT22;63058;49.424;8.420;2023-10-08T00:31:27;19.60;72.20
20856;DHT22;63058;49.424;8.420;2023-10-08T00:33:57;19.60;72.20
20856;DHT22;63058;49.424;8.420;2023-10-08T00:36:23;19.50;72.30
20856;DHT22;63058;49.424;8.420;2023-10-08T00:38:50;19.50;72.30
20856;DHT22;63058;49.424;8.420;2023-10-08T00:41:26;19.40;72.30
20856;DHT22;63058;49.424;8.420;2023-10-08T00:43:57;19.40;72.30
20856;DHT22;63058;49.424;8.420;2023-10-08T00:46:25;19.40;72.50
20856;DHT22;63058;49.424;8.420;2023-10-08T00:49:02;19.30;72.50
20856;DHT22;63058;49.424;8.420;2023-10-08T00:51:47;19.20;72.50
20856;DHT22;63058;49.424;8.420;2023-10-08T00:54:13;19.30;72.60
20856;DHT22;63058;49.424;8.420;2023-10-08T00:56:46;19.20;72.70
20856;DHT22;63058;49.424;8.420;2023-10-08T00:59:12;19.20;73.00
20856;DHT22;63058;49.424;8.420;2023-10-08T01:01:44;19.20;73.00
20856;DHT22;63058;49.424;8.420;2023-10-08T01:04:25;19.10;73.00
20856;DHT22;63058;49.424;8.420;2023-10-08T01:07:01;19.10;73.10
20856;DHT22;63058;49.424;8.420;2023-10-08T01:09:39;19.10;73.10
20856;DHT22;63058;49.424;8.420;2023-10-08T01:12:26;19.00;73.10
20856;DHT22;63058;49.424;8.420;2023-10-08T01:15:15;19.00;73.50
20856;DHT22;63058;49.424;8.420;2023-10-08T01:17:53;18.90;73.00
20856;DHT22;63058;49.424;8.420;2023-10-08T01:20:28;18.90;73.10
20856;DHT22;63058;49.424;8.420;2023-10-08T01:23:05;18.80;73.20
20856;DHT22;63058;49.424;8.420;2023-10-08T01:25:35;18.80;73.50
20856;DHT22;63058;49.424;8.420;2023-10-08T01:28:01;18.70;73.40
20856;DHT22;63058;49.424;8.420;2023-10-08T01:30:34;18.70;73.60
20856;DHT22;63058;49.424;8.420;2023-10-08T01:33:06;18.60;73.60
20856;DHT22;63058;49.424;8.420;2023-10-08T01:35:41;18.60;73.80
20856;DHT22;63058;49.424;8.420;2023-10-08T01:38:07;18.50;73.80
20856;DHT22;63058;49.424;8.420;2023-10-08T01:40:34;18.50;73.90
20856;DHT22;63058;49.424;8.420;2023-10-08T01:43:00;18.50;74.10
20856;DHT22;63058;49.424;8.420;2023-10-08T01:45:26;18.50;74.10
20856;DHT22;63058;49.424;8.420;2023-10-08T01:47:52;18.50;74.10
20856;DHT22;63058;49.424;8.420;2023-10-08T01:50:20;18.40;74.20
20856;DHT22;63058;49.424;8.420;2023-10-08T01:52:47;18.40;75.00
20856;DHT22;63058;49.424;8.420;2023-10-08T01:55:13;18.30;74.20
20856;DHT22;63058;49.424;8.420;2023-10-08T01:57:47;18.30;74.40
20856;DHT22;63058;49.424;8.420;2023-10-08T02:00:13;18.30;74.40
20856;DHT22;63058;49.424;8.420;2023-10-08T02:02:46;18.20;74.50
20856;DHT22;63058;49.424;8.420;2023-10-08T02:05:12;18.20;74.60
20856;DHT22;63058;49.424;8.420;2023-10-08T02:07:41;18.20;74.60
20856;DHT22;63058;49.424;8.420;2023-10-08T02:10:10;18.10;74.50
20856;DHT22;63058;49.424;8.420;2023-10-08T02:12:37;18.10;74.60
20856;DHT22;63058;49.424;8.420;2023-10-08T02:15:06;18.10;74.70
20856;DHT22;63058;49.424;8.420;2023-10-08T02:17:33;18.10;74.80
20856;DHT22;63058;49.424;8.420;2023-10-08T02:19:59;18.00;75.00
20856;DHT22;63058;49.424;8.420;2023-10-08T02:22:24;17.90;75.10
20856;DHT22;63058;49.424;8.420;2023-10-08T02:24:50;17.90;75.30
20856;DHT22;63058;49.424;8.420;2023-10-08T02:27:19;18.00;75.40
20856;DHT22;63058;49.424;8.420;2023-10-08T02:29:44;17.90;75.40
20856;DHT22;63058;49.424;8.420;2023-10-08T02:32:10;18.00;75.60
20856;DHT22;63058;49.424;8.420;2023-10-08T02:34:36;18.00;75.60
20856;DHT22;63058;49.424;8.420;2023-10-08T02:37:01;17.90;75.60
20856;DHT22;63058;49.424;8.420;2023-10-08T02:39:29;17.90;75.60
20856;DHT22;63058;49.424;8.420;2023-10-08T02:41:56;17.80;75.60
20856;DHT22;63058;49.424;8.420;2023-10-08T02:44:25;17.90;75.70
20856;DHT22;63058;49.424;8.420;2023-10-08T02:46:51;18.00;75.70
20856;DHT22;63058;49.424;8.420;2023-10-08T02:49:21;17.90;75.70
20856;DHT22;63058;49.424;8.420;2023-10-08T02:51:53;17.90;75.80
20856;DHT22;63058;49.424;8.420;2023-10-08T02:54:20;17.90;75.60
20856;DHT22;63058;49.424;8.420;2023-10-08T02:56:50;18.00;75.70
20856;DHT22;63058;49.424;8.420;2023-10-08T02:59:32;18.00;75.70
20856;DHT22;63058;49.424;8.420;2023-10-08T03:02:14;18.00;75.70
20856;DHT22;63058;49.424;8.420;2023-10-08T03:04:44;17.90;75.70
20856;DHT22;63058;49.424;8.420;2023-10-08T03:07:14;17.90;75.60
20856;DHT22;63058;49.424;8.420;2023-10-08T03:09:47;17.80;75.60
20856;DHT22;63058;49.424;8.420;2023-10-08T03:12:18;17.80;75.70
20856;DHT22;63058;49.424;8.420;2023-10-08T03:14:44;17.70;75.80
20856;DHT22;63058;49.424;8.420;2023-10-08T03:17:29;17.70;76.00
20856;DHT22;63058;49.424;8.420;2023-10-08T03:19:55;17.60;76.20
20856;DHT22;63058;49.424;8.420;2023-10-08T03:22:44;17.60;77.20
20856;DHT22;63058;49.424;8.420;2023-10-08T03:25:12;17.60;76.40
20856;DHT22;63058;49.424;8.420;2023-10-08T03:27:45;17.60;76.40
20856;DHT22;63058;49.424;8.420;2023-10-08T03:30:12;17.60;76.30
20856;DHT22;63058;49.424;8.420;2023-10-08T03:32:43;17.60;76.40
20856;DHT22;63058;49.424;8.420;2023-10-08T03:35:20;17.50;76.60
20856;DHT22;63058;49.424;8.420;2023-10-08T03:37:53;17.50;76.40
20856;DHT22;63058;49.424;8.420;2023-10-08T03:40:20;17.40;76.30
20856;DHT22;63058;49.424;8.420;2023-10-08T03:43:07;17.40;76.50
20856;DHT22;63058;49.424;8.420;2023-10-08T03:45:40;17.30;76.60
20856;DHT22;63058;49.424;8.420;2023-10-08T03:48:25;17.20;76.80
20856;DHT22;63058;49.424;8.420;2023-10-08T03:50:51;17.10;76.90
20856;DHT22;63058;49.424;8.420;2023-10-08T03:53:32;17.10;77.20
20856;DHT22;63058;49.424;8.420;2023-10-08T03:56:02;17.10;77.40
20856;DHT22;63058;49.424;8.420;2023-10-08T03:58:31;17.10;77.50
20856;DHT22;63058;49.424;8.420;2023-10-08T04:01:03;17.00;77.50
20856;DHT22;63058;49.424;8.420;2023-10-08T04:03:35;17.00;77.50
20856;DHT22;63058;49.424;8.420;2023-10-08T04:06:25;17.00;77.70
20856;DHT22;63058;49.424;8.420;2023-10-08T04:08:56;17.00;77.70
20856;DHT22;63058;49.424;8.420;2023-10-08T04:11:37;17.10;77.80
20856;DHT22;63058;49.424;8.420;2023-10-08T04:14:21;17.10;77.70
20856;DHT22;63058;49.424;8.420;2023-10-08T04:16:48;17.10;77.90
20856;DHT22;63058;49.424;8.420;2023-10-08T04:19:18;17.10;77.50
20856;DHT22;63058;49.424;8.420;2023-10-08T04:21:44;17.10;77.50
20856;DHT22;63058;49.424;8.420;2023-10-08T04:24:11;17.10;77.60
20856;DHT22;63058;49.424;8.420;2023-10-08T04:26:40;17.10;77.80
20856;DHT22;63058;49.424;8.420;2023-10-08T04:29:06;17.10;77.80
20856;DHT22;63058;49.424;8.420;2023-10-08T04:31:33;17.10;77.80
20856;DHT22;63058;49.424;8.420;2023-10-08T04:34:10;17.10;77.80
20856;DHT22;63058;49.424;8.420;2023-10-08T04:36:47;17.10;77.80
20856;DHT22;63058;49.424;8.420;2023-10-08T04:39:19;17.10;77.80
20856;DHT22;63058;49.424;8.420;2023-10-08T04:41:52;17.20;77.70
20856;DHT22;63058;49.424;8.420;2023-10-08T04:44:24;17.20;77.80
20856;DHT22;63058;49.424;8.420;2023-10-08T04:46:51;17.20;77.80
20856;DHT22;63058;49.424;8.420;2023-10-08T04:49:18;17.20;77.80
20856;DHT22;63058;49.424;8.420;2023-10-08T04:51:55;17.20;77.80
20856;DHT22;63058;49.424;8.420;2023-10-08T04:54:28;17.20;77.80
20856;DHT22;63058;49.424;8.420;2023-10-08T04:56:56;17.20;77.80
20856;DHT22;63058;49.424;8.420;2023-10-08T04:59:24;17.20;77.70
20856;DHT22;63058;49.424;8.420;2023-10-08T05:02:04;17.20;77.60
20856;DHT22;63058;49.424;8.420;2023-10-08T05:04:49;17.20;77.60
20856;DHT22;63058;49.424;8.420;2023-10-08T05:07:22;17.20;77.50
20856;DHT22;63058;49.424;8.420;2023-10-08T05:10:25;17.20;77.70
20856;DHT22;63058;49.424;8.420;2023-10-08T05:12:52;17.10;77.50
20856;DHT22;63058;49.424;8.420;2023-10-08T05:15:41;17.10;77.60
20856;DHT22;63058;49.424;8.420;2023-10-08T05:18:15;17.00;77.50
20856;DHT22;63058;49.424;8.420;2023-10-08T05:20:44;17.00;77.60
20856;DHT22;63058;49.424;8.420;2023-10-08T05:23:17;16.90;77.60
20856;DHT22;63058;49.424;8.420;2023-10-08T05:25:51;16.90;77.80
20856;DHT22;63058;49.424;8.420;2023-10-08T05:28:36;16.80;78.20
20856;DHT22;63058;49.424;8.420;2023-10-08T05:31:16;16.70;78.30
20856;DHT22;63058;49.424;8.420;2023-10-08T05:33:42;16.70;78.40
20856;DHT22;63058;49.424;8.420;2023-10-08T05:36:27;16.60;78.60
20856;DHT22;63058;49.424;8.420;2023-10-08T05:39:16;16.70;78.80
20856;DHT22;63058;49.424;8.420;2023-10-08T05:42:00;16.70;79.00
20856;DHT22;63058;49.424;8.420;2023-10-08T05:44:45;16.70;79.10
20856;DHT22;63058;49.424;8.420;2023-10-08T05:47:29;16.70;79.20
20856;DHT22;63058;49.424;8.420;2023-10-08T05:49:58;16.80;79.40
20856;DHT22;63058;49.424;8.420;2023-10-08T05:52:46;16.80;79.40
20856;DHT22;63058;49.424;8.420;2023-10-08T05:55:24;16.90;79.50
20856;DHT22;63058;49.424;8.420;2023-10-08T05:58:06;16.90;79.20
20856;DHT22;63058;49.424;8.420;2023-10-08T06:00:45;17.00;79.50
20856;DHT22;63058;49.424;8.420;2023-10-08T06:03:30;17.00;79.00
20856;DHT22;63058;49.424;8.420;2023-10-08T06:06:24;17.00;78.90
20856;DHT22;63058;49.424;8.420;2023-10-08T06:09:02;17.00;78.80
20856;DHT22;63058;49.424;8.420;2023-10-08T06:11:35;17.00;78.80
20856;DHT22;63058;49.424;8.420;2023-10-08T06:14:10;17.10;78.90
20856;DHT22;63058;49.424;8.420;2023-10-08T06:16:45;17.10;78.90
20856;DHT22;63058;49.424;8.420;2023-10-08T06:19:13;17.10;79.00
20856;DHT22;63058;49.424;8.420;2023-10-08T06:21:40;17.10;79.00
20856;DHT22;63058;49.424;8.420;2023-10-08T06:24:07;17.20;79.10
20856;DHT22;63058;49.424;8.420;2023-10-08T06:26:39;17.20;79.00
20856;DHT22;63058;49.424;8.420;2023-10-08T06:29:11;17.20;79.20
20856;DHT22;63058;49.424;8.420;2023-10-08T06:31:57;17.20;79.40
20856;DHT22;63058;49.424;8.420;2023-10-08T06:34:23;17.20;79.60
20856;DHT22;63058;49.424;8.420;2023-10-08T06:36:53;17.30;79.70
20856;DHT22;63058;49.424;8.420;2023-10-08T06:39:23;17.30;79.90
20856;DHT22;63058;49.424;8.420;2023-10-08T06:41:54;17.40;80.20
20856;DHT22;63058;49.424;8.420;2023-10-08T06:44:22;17.40;80.00
20856;DHT22;63058;49.424;8.420;2023-10-08T06:46:48;17.50;79.90
20856;DHT22;63058;49.424;8.420;2023-10-08T06:49:14;17.60;79.90
20856;DHT22;63058;49.424;8.420;2023-10-08T06:51:42;17.60;79.90
20856;DHT22;63058;49.424;8.420;2023-10-08T06:54:11;17.70;79.80
20856;DHT22;63058;49.424;8.420;2023-10-08T06:56:39;17.80;79.80
20856;DHT22;63058;49.424;8.420;2023-10-08T06:59:11;17.80;79.70
20856;DHT22;63058;49.424;8.420;2023-10-08T07:01:37;17.90;79.60
20856;DHT22;63058;49.424;8.420;2023-10-08T07:04:06;18.00;79.50
20856;DHT22;63058;49.424;8.420;2023-10-08T07:06:43;18.00;79.30
20856;DHT22;63058;49.424;8.420;2023-10-08T07:09:10;18.10;79.30
20856;DHT22;63058;49.424;8.420;2023-10-08T07:11:52;18.10;79.30
20856;DHT22;63058;49.424;8.420;2023-10-08T07:14:24;18.20;79.30
20856;DHT22;63058;49.424;8.420;2023-10-08T07:16:53;18.30;79.30
20856;DHT22;63058;49.424;8.420;2023-10-08T07:19:21;18.30;79.20
20856;DHT22;63058;49.424;8.420;2023-10-08T07:21:49;18.40;79.30
20856;DHT22;63058;49.424;8.420;2023-10-08T07:24:19;18.40;79.20
20856;DHT22;63058;49.424;8.420;2023-10-08T07:26:47;18.50;79.10
20856;DHT22;63058;49.424;8.420;2023-10-08T07:29:16;18.60;79.00
20856;DHT22;63058;49.424;8.420;2023-10-08T07:31:48;18.60;79.00
20856;DHT22;63058;49.424;8.420;2023-10-08T07:34:19;18.70;79.00
20856;DHT22;63058;49.424;8.420;2023-10-08T07:36:51;18.80;79.00
20856;DHT22;63058;49.424;8.420;2023-10-08T07:39:18;18.90;79.00
20856;DHT22;63058;49.424;8.420;2023-10-08T07:41:57;18.90;78.80
20856;DHT22;63058;49.424;8.420;2023-10-08T07:44:25;19.00;78.70
20856;DHT22;63058;49.424;8.420;2023-10-08T07:46:52;19.10;78.50
20856;DHT22;63058;49.424;8.420;2023-10-08T07:49:22;19.20;78.50
20856;DHT22;63058;49.424;8.420;2023-10-08T07:51:49;19.30;78.80
20856;DHT22;63058;49.424;8.420;2023-10-08T07:54:24;19.40;79.00
20856;DHT22;63058;49.424;8.420;2023-10-08T07:56:50;19.50;78.80
20856;DHT22;63058;49.424;8.420;2023-10-08T07:59:17;19.60;78.80
20856;DHT22;63058;49.424;8.420;2023-10-08T08:01:43;19.70;78.70
20856;DHT22;63058;49.424;8.420;2023-10-08T08:04:12;19.90;79.00
20856;DHT22;63058;49.424;8.420;2023-10-08T08:06:51;20.00;78.80
20856;DHT22;63058;49.424;8.420;2023-10-08T08:09:18;20.10;78.70
20856;DHT22;63058;49.424;8.420;2023-10-08T08:11:46;20.20;78.70
20856;DHT22;63058;49.424;8.420;2023-10-08T08:14:13;20.30;78.50
20856;DHT22;63058;49.424;8.420;2023-10-08T08:16:45;20.40;78.30
20856;DHT22;63058;49.424;8.420;2023-10-08T08:19:14;20.40;78.30
20856;DHT22;63058;49.424;8.420;2023-10-08T08:21:41;20.50;78.20
20856;DHT22;63058;49.424;8.420;2023-10-08T08:24:11;20.60;78.30
20856;DHT22;63058;49.424;8.420;2023-10-08T08:26:37;20.70;78.30
20856;DHT22;63058;49.424;8.420;2023-10-08T08:29:27;20.80;78.20
20856;DHT22;63058;49.424;8.420;2023-10-08T08:31:52;20.80;77.90
20856;DHT22;63058;49.424;8.420;2023-10-08T08:34:19;20.90;78.40
20856;DHT22;63058;49.424;8.420;2023-10-08T08:36:49;20.90;77.30
20856;DHT22;63058;49.424;8.420;2023-10-08T08:39:16;21.00;77.10
20856;DHT22;63058;49.424;8.420;2023-10-08T08:42:08;21.10;77.30
20856;DHT22;63058;49.424;8.420;2023-10-08T08:44:39;21.20;77.10
20856;DHT22;63058;49.424;8.420;2023-10-08T08:47:13;21.30;76.40
20856;DHT22;63058;49.424;8.420;2023-10-08T08:49:45;21.40;76.50
20856;DHT22;63058;49.424;8.420;2023-10-08T08:52:12;21.40;76.30
20856;DHT22;63058;49.424;8.420;2023-10-08T08:54:39;21.50;77.30
20856;DHT22;63058;49.424;8.420;2023-10-08T08:57:05;21.60;76.60
20856;DHT22;63058;49.424;8.420;2023-10-08T08:59:32;21.60;76.60
20856;DHT22;63058;49.424;8.420;2023-10-08T09:02:02;21.70;76.60
20856;DHT22;63058;49.424;8.420;2023-10-08T09:04:32;21.80;76.50
20856;DHT22;63058;49.424;8.420;2023-10-08T09:07:01;21.90;75.80
20856;DHT22;63058;49.424;8.420;2023-10-08T09:09:36;22.00;76.20
20856;DHT22;63058;49.424;8.420;2023-10-08T09:12:10;22.00;75.70
20856;DHT22;63058;49.424;8.420;2023-10-08T09:14:36;22.10;76.10
20856;DHT22;63058;49.424;8.420;2023-10-08T09:17:03;22.20;76.20
20856;DHT22;63058;49.424;8.420;2023-10-08T09:19:36;22.20;76.30
20856;DHT22;63058;49.424;8.420;2023-10-08T09:22:10;22.20;75.80
20856;DHT22;63058;49.424;8.420;2023-10-08T09:24:41;22.30;75.80
20856;DHT22;63058;49.424;8.420;2023-10-08T09:27:11;22.40;75.70
20856;DHT22;63058;49.424;8.420;2023-10-08T09:29:41;22.40;75.40
20856;DHT22;63058;49.424;8.420;2023-10-08T09:32:12;22.50;75.80
20856;DHT22;63058;49.424;8.420;2023-10-08T09:34:48;22.60;75.70
20856;DHT22;63058;49.424;8.420;2023-10-08T09:37:16;22.60;76.00
20856;DHT22;63058;49.424;8.420;2023-10-08T09:39:42;22.70;75.70
20856;DHT22;63058;49.424;8.420;2023-10-08T09:42:08;22.70;75.50
20856;DHT22;63058;49.424;8.420;2023-10-08T09:44:37;22.80;75.30
20856;DHT22;63058;49.424;8.420;2023-10-08T09:47:04;22.80;75.00
20856;DHT22;63058;49.424;8.420;2023-10-08T09:49:39;22.90;74.70
20856;DHT22;63058;49.424;8.420;2023-10-08T09:52:07;22.90;73.90
20856;DHT22;63058;49.424;8.420;2023-10-08T09:54:44;23.00;74.60
20856;DHT22;63058;49.424;8.420;2023-10-08T09:57:11;23.10;74.20
20856;DHT22;63058;49.424;8.420;2023-10-08T09:59:37;23.20;74.70
20856;DHT22;63058;49.424;8.420;2023-10-08T10:02:06;23.20;74.20
20856;DHT22;63058;49.424;8.420;2023-10-08T10:04:37;23.30;73.90
20856;DHT22;63058;49.424;8.420;2023-10-08T10:07:12;23.30;74.10
20856;DHT22;63058;49.424;8.420;2023-10-08T10:09:43;23.40;73.90
20856;DHT22;63058;49.424;8.420;2023-10-08T10:12:11;23.50;73.40
20856;DHT22;63058;49.424;8.420;2023-10-08T10:14:47;23.60;73.60
20856;DHT22;63058;49.424;8.420;2023-10-08T10:17:20;23.60;72.60
20856;DHT22;63058;49.424;8.420;2023-10-08T10:20:06;23.70;73.60
20856;DHT22;63058;49.424;8.420;2023-10-08T10:22:36;23.80;72.50
20856;DHT22;63058;49.424;8.420;2023-10-08T10:25:03;24.00;73.60
20856;DHT22;63058;49.424;8.420;2023-10-08T10:30:30;24.10;72.90
20856;DHT22;63058;49.424;8.420;2023-10-08T10:33:00;24.30;72.90
20856;DHT22;63058;49.424;8.420;2023-10-08T10:35:26;24.50;72.70
20856;DHT22;63058;49.424;8.420;2023-10-08T10:37:53;24.60;72.80
20856;DHT22;63058;49.424;8.420;2023-10-08T10:40:24;24.80;72.70
20856;DHT22;63058;49.424;8.420;2023-10-08T10:43:16;24.90;71.30
20856;DHT22;63058;49.424;8.420;2023-10-08T10:45:45;25.10;71.90
20856;DHT22;63058;49.424;8.420;2023-10-08T10:48:13;25.20;71.60
20856;DHT22;63058;49.424;8.420;2023-10-08T10:50:46;25.30;71.10
20856;DHT22;63058;49.424;8.420;2023-10-08T10:53:32;25.40;70.40
20856;DHT22;63058;49.424;8.420;2023-10-08T10:55:59;25.40;70.40
20856;DHT22;63058;49.424;8.420;2023-10-08T10:58:35;25.50;70.40
20856;DHT22;63058;49.424;8.420;2023-10-08T11:01:07;25.50;69.80
20856;DHT22;63058;49.424;8.420;2023-10-08T11:03:51;25.50;69.40
20856;DHT22;63058;49.424;8.420;2023-10-08T11:06:19;25.60;69.60
20856;DHT22;63058;49.424;8.420;2023-10-08T11:08:50;25.60;69.70
20856;DHT22;63058;49.424;8.420;2023-10-08T11:11:25;25.70;69.30
20856;DHT22;63058;49.424;8.420;2023-10-08T11:13:59;25.80;69.40
20856;DHT22;63058;49.424;8.420;2023-10-08T11:16:28;26.00;69.60
20856;DHT22;63058;49.424;8.420;2023-10-08T11:18:57;26.20;70.00
20856;DHT22;63058;49.424;8.420;2023-10-08T11:21:31;26.40;69.60
20856;DHT22;63058;49.424;8.420;2023-10-08T11:23:59;26.70;69.80
20856;DHT22;63058;49.424;8.420;2023-10-08T11:26:26;27.00;70.10
20856;DHT22;63058;49.424;8.420;2023-10-08T11:29:05;27.30;68.30
20856;DHT22;63058;49.424;8.420;2023-10-08T11:31:31;27.70;68.40
20856;DHT22;63058;49.424;8.420;2023-10-08T11:34:02;28.10;68.50
20856;DHT22;63058;49.424;8.420;2023-10-08T11:36:35;28.50;67.30
20856;DHT22;63058;49.424;8.420;2023-10-08T11:39:14;28.90;67.50
20856;DHT22;63058;49.424;8.420;2023-10-08T11:42:02;29.40;66.60
20856;DHT22;63058;49.424;8.420;2023-10-08T11:44:50;29.80;63.70
20856;DHT22;63058;49.424;8.420;2023-10-08T11:47:17;30.30;65.10
20856;DHT22;63058;49.424;8.420;2023-10-08T11:49:47;30.60;63.90
20856;DHT22;63058;49.424;8.420;2023-10-08T11:52:15;30.90;63.40
20856;DHT22;63058;49.424;8.420;2023-10-08T11:54:42;31.20;62.10
20856;DHT22;63058;49.424;8.420;2023-10-08T11:57:08;31.50;61.30
20856;DHT22;63058;49.424;8.420;2023-10-08T11:59:35;31.70;60.90
20856;DHT22;63058;49.424;8.420;2023-10-08T12:02:06;32.00;60.60
20856;DHT22;63058;49.424;8.420;2023-10-08T12:04:31;32.30;58.70
20856;DHT22;63058;49.424;8.420;2023-10-08T12:06:57;32.60;58.90
20856;DHT22;63058;49.424;8.420;2023-10-08T12:09:27;32.70;58.50
20856;DHT22;63058;49.424;8.420;2023-10-08T12:11:53;33.00;57.90
20856;DHT22;63058;49.424;8.420;2023-10-08T12:14:19;33.30;57.30
20856;DHT22;63058;49.424;8.420;2023-10-08T12:16:44;33.40;56.70
20856;DHT22;63058;49.424;8.420;2023-10-08T12:19:11;33.60;56.10
20856;DHT22;63058;49.424;8.420;2023-10-08T12:21:43;33.70;55.40
20856;DHT22;63058;49.424;8.420;2023-10-08T12:24:12;33.80;55.10
20856;DHT22;63058;49.424;8.420;2023-10-08T12:26:38;33.90;54.60
20856;DHT22;63058;49.424;8.420;2023-10-08T12:29:14;34.00;54.00
20856;DHT22;63058;49.424;8.420;2023-10-08T12:31:40;34.10;53.90
20856;DHT22;63058;49.424;8.420;2023-10-08T12:34:06;34.10;53.80
20856;DHT22;63058;49.424;8.420;2023-10-08T12:36:32;34.20;53.00
20856;DHT22;63058;49.424;8.420;2023-10-08T12:39:02;34.40;53.20
20856;DHT22;63058;49.424;8.420;2023-10-08T12:41:34;34.50;53.10
20856;DHT22;63058;49.424;8.420;2023-10-08T12:44:04;34.70;52.40
20856;DHT22;63058;49.424;8.420;2023-10-08T12:46:33;34.80;51.80
20856;DHT22;63058;49.424;8.420;2023-10-08T12:48:59;34.80;51.50
20856;DHT22;63058;49.424;8.420;2023-10-08T12:51:27;34.70;51.30
20856;DHT22;63058;49.424;8.420;2023-10-08T12:53:57;34.80;51.10
20856;DHT22;63058;49.424;8.420;2023-10-08T12:56:34;34.90;50.90
20856;DHT22;63058;49.424;8.420;2023-10-08T12:59:14;35.00;51.00
20856;DHT22;63058;49.424;8.420;2023-10-08T13:01:46;35.10;50.80
20856;DHT22;63058;49.424;8.420;2023-10-08T13:04:17;35.30;50.70
20856;DHT22;63058;49.424;8.420;2023-10-08T13:06:55;35.50;50.70
20856;DHT22;63058;49.424;8.420;2023-10-08T13:09:25;35.60;50.00
20856;DHT22;63058;49.424;8.420;2023-10-08T13:11:51;35.70;49.80
20856;DHT22;63058;49.424;8.420;2023-10-08T13:14:16;35.80;49.70
20856;DHT22;63058;49.424;8.420;2023-10-08T13:16:42;35.90;48.50
20856;DHT22;63058;49.424;8.420;2023-10-08T13:19:10;36.00;48.80
20856;DHT22;63058;49.424;8.420;2023-10-08T13:21:36;36.00;48.80
20856;DHT22;63058;49.424;8.420;2023-10-08T13:24:03;36.20;48.90
20856;DHT22;63058;49.424;8.420;2023-10-08T13:26:30;36.30;48.20
20856;DHT22;63058;49.424;8.420;2023-10-08T13:28:59;36.40;47.90
20856;DHT22;63058;49.424;8.420;2023-10-08T13:31:26;36.40;46.90
20856;DHT22;63058;49.424;8.420;2023-10-08T13:33:52;36.30;46.90
20856;DHT22;63058;49.424;8.420;2023-10-08T13:36:22;36.30;46.90
20856;DHT22;63058;49.424;8.420;2023-10-08T13:38:49;36.20;47.20
20856;DHT22;63058;49.424;8.420;2023-10-08T13:41:15;36.20;47.20
20856;DHT22;63058;49.424;8.420;2023-10-08T13:43:42;36.30;47.00
20856;DHT22;63058;49.424;8.420;2023-10-08T13:46:13;36.30;46.80
20856;DHT22;63058;49.424;8.420;2023-10-08T13:48:40;36.40;46.60
20856;DHT22;63058;49.424;8.420;2023-10-08T13:51:07;36.40;46.60
20856;DHT22;63058;49.424;8.420;2023-10-08T13:53:39;36.50;46.20
20856;DHT22;63058;49.424;8.420;2023-10-08T13:56:06;36.50;45.40
20856;DHT22;63058;49.424;8.420;2023-10-08T13:58:32;36.50;45.30
20856;DHT22;63058;49.424;8.420;2023-10-08T14:01:01;36.40;44.80
20856;DHT22;63058;49.424;8.420;2023-10-08T14:03:28;36.20;44.30
20856;DHT22;63058;49.424;8.420;2023-10-08T14:05:57;36.00;44.30
20856;DHT22;63058;49.424;8.420;2023-10-08T14:08:28;35.80;44.50
20856;DHT22;63058;49.424;8.420;2023-10-08T14:10:54;35.60;44.60
20856;DHT22;63058;49.424;8.420;2023-10-08T14:13:26;35.40;44.80
20856;DHT22;63058;49.424;8.420;2023-10-08T14:15:52;35.10;45.00
20856;DHT22;63058;49.424;8.420;2023-10-08T14:18:25;34.90;44.80
20856;DHT22;63058;49.424;8.420;2023-10-08T14:20:57;34.50;44.40
20856;DHT22;63058;49.424;8.420;2023-10-08T14:23:23;34.00;44.10
20856;DHT22;63058;49.424;8.420;2023-10-08T14:25:52;33.50;44.10
20856;DHT22;63058;49.424;8.420;2023-10-08T14:28:20;32.90;44.30
20856;DHT22;63058;49.424;8.420;2023-10-08T14:31:06;32.40;44.70
20856;DHT22;63058;49.424;8.420;2023-10-08T14:33:31;31.80;45.50
20856;DHT22;63058;49.424;8.420;2023-10-08T14:36:10;31.40;46.20
20856;DHT22;63058;49.424;8.420;2023-10-08T14:38:54;31.10;46.60
20856;DHT22;63058;49.424;8.420;2023-10-08T14:41:49;30.90;47.20
20856;DHT22;63058;49.424;8.420;2023-10-08T14:44:33;30.80;47.80
20856;DHT22;63058;49.424;8.420;2023-10-08T14:47:00;30.70;48.50
20856;DHT22;63058;49.424;8.420;2023-10-08T14:49:25;30.80;49.20
20856;DHT22;63058;49.424;8.420;2023-10-08T14:51:51;31.00;50.10
20856;DHT22;63058;49.424;8.420;2023-10-08T14:54:18;31.40;50.20
20856;DHT22;63058;49.424;8.420;2023-10-08T14:56:46;31.80;50.00
20856;DHT22;63058;49.424;8.420;2023-10-08T14:59:12;32.30;50.00
20856;DHT22;63058;49.424;8.420;2023-10-08T15:01:38;32.70;49.40
20856;DHT22;63058;49.424;8.420;2023-10-08T15:04:04;33.10;48.70
20856;DHT22;63058;49.424;8.420;2023-10-08T15:06:31;33.40;48.10
20856;DHT22;63058;49.424;8.420;2023-10-08T15:08:58;33.60;47.40
20856;DHT22;63058;49.424;8.420;2023-10-08T15:11:24;33.70;46.90
20856;DHT22;63058;49.424;8.420;2023-10-08T15:13:52;33.70;46.70
20856;DHT22;63058;49.424;8.420;2023-10-08T15:16:20;33.70;46.60
20856;DHT22;63058;49.424;8.420;2023-10-08T15:18:49;33.70;46.50
20856;DHT22;63058;49.424;8.420;2023-10-08T15:21:17;33.70;46.50
20856;DHT22;63058;49.424;8.420;2023-10-08T15:23:44;33.70;46.40
20856;DHT22;63058;49.424;8.420;2023-10-08T15:26:11;33.70;46.20
20856;DHT22;63058;49.424;8.420;2023-10-08T15:28:38;33.60;46.20
20856;DHT22;63058;49.424;8.420;2023-10-08T15:31:04;33.60;46.30
20856;DHT22;63058;49.424;8.420;2023-10-08T15:33:30;33.60;46.20
20856;DHT22;63058;49.424;8.420;2023-10-08T15:35:55;33.60;46.10
20856;DHT22;63058;49.424;8.420;2023-10-08T15:38:22;33.40;45.90
20856;DHT22;63058;49.424;8.420;2023-10-08T15:40:48;33.40;45.80
20856;DHT22;63058;49.424;8.420;2023-10-08T15:43:14;33.30;45.60
20856;DHT22;63058;49.424;8.420;2023-10-08T15:45:40;33.30;45.60
20856;DHT22;63058;49.424;8.420;2023-10-08T15:48:07;33.20;45.40
20856;DHT22;63058;49.424;8.420;2023-10-08T15:50:33;33.00;45.30
20856;DHT22;63058;49.424;8.420;2023-10-08T15:52:59;32.90;45.10
20856;DHT22;63058;49.424;8.420;2023-10-08T15:55:25;32.60;45.00
20856;DHT22;63058;49.424;8.420;2023-10-08T15:57:54;32.30;44.90